createdAt,value
2024-01-11T00:00:46.473Z,100143.47
2024-01-11T00:03:52.927Z,100138.42
2024-01-11T00:06:59.319Z,100138.06
2024-01-11T00:10:06.740Z,100137.20
2024-01-11T00:13:13.106Z,100132.66
2024-01-11T00:16:19.536Z,100131.79
2024-01-11T00:19:25.959Z,100121.15
2024-01-11T00:22:33.276Z,100111.59
2024-01-11T00:25:39.885Z,100117.67
2024-01-11T00:28:46.222Z,100116.98
2024-01-11T00:31:52.558Z,100110.36
2024-01-11T00:34:59.315Z,100103.73
2024-01-11T00:38:05.945Z,100093.98
2024-01-11T00:41:12.361Z,100096.42
2024-01-11T00:44:18.926Z,100102.85
2024-01-11T00:47:25.391Z,100097.45
2024-01-11T00:50:31.938Z,100084.91
2024-01-11T00:53:38.394Z,100085.95
2024-01-11T00:56:44.764Z,100088.39
2024-01-11T00:59:51.227Z,100090.64
2024-01-11T01:02:58.007Z,100090.63
2024-01-11T01:06:05.042Z,100090.29
2024-01-11T01:09:11.476Z,100083.83
2024-01-11T01:12:17.965Z,100080.70
2024-01-11T01:15:24.324Z,100077.77
2024-01-11T01:18:30.931Z,100078.80
2024-01-11T01:21:37.381Z,100082.11
2024-01-11T01:24:43.994Z,100078.95
2024-01-11T01:27:50.664Z,100078.27
2024-01-11T01:30:57.117Z,100079.15
2024-01-11T01:34:03.685Z,100075.64
2024-01-11T01:37:10.105Z,100077.02
2024-01-11T01:40:17.094Z,100070.23
2024-01-11T01:43:23.393Z,100067.13
2024-01-11T01:46:30.677Z,100067.30
2024-01-11T01:49:38.364Z,100062.77
2024-01-11T01:52:46.772Z,100062.25
2024-01-11T01:55:54.845Z,100069.38
2024-01-11T01:59:03.587Z,100065.00
2024-01-11T02:02:10.731Z,100063.09
2024-01-11T02:05:19.312Z,100062.20
2024-01-11T02:08:28.078Z,100064.29
2024-01-11T02:11:35.120Z,100064.64
2024-01-11T02:14:41.856Z,100056.64
2024-01-11T02:17:48.541Z,100053.86
2024-01-11T02:20:55.219Z,100051.60
2024-01-11T02:24:12.383Z,100048.30
2024-01-11T02:27:18.725Z,100049.54
2024-01-11T02:30:25.171Z,100042.05
2024-01-11T02:33:31.822Z,100027.27
2024-01-11T02:36:38.314Z,100031.25
2024-01-11T02:39:44.839Z,100034.20
2024-01-11T02:42:51.226Z,100033.67
2024-01-11T02:46:00.976Z,100021.68
2024-01-11T02:49:07.475Z,100020.30
2024-01-11T02:52:14.098Z,100024.64
2024-01-11T02:55:20.439Z,100028.45
2024-01-11T02:58:26.762Z,100025.51
2024-01-11T03:01:33.852Z,100019.23
2024-01-11T03:04:40.340Z,100027.56
2024-01-11T03:07:46.765Z,100025.13
2024-01-11T03:10:53.084Z,100020.94
2024-01-11T03:13:59.535Z,100016.60
2024-01-11T03:17:06.314Z,100015.05
2024-01-11T03:20:13.861Z,100012.42
2024-01-11T03:23:21.022Z,100017.80
2024-01-11T03:26:27.470Z,100016.77
2024-01-11T03:29:33.905Z,100008.78
2024-01-11T03:32:41.398Z,100002.02
2024-01-11T03:35:48.085Z,99999.24
2024-01-11T03:38:54.581Z,99991.25
2024-01-11T03:42:00.963Z,99981.69
2024-01-11T03:45:08.890Z,99977.14
2024-01-11T03:48:15.421Z,99966.02
2024-01-11T03:51:21.830Z,99964.10
2024-01-11T03:54:28.187Z,99966.00
2024-01-11T03:57:34.546Z,99963.72
2024-01-11T04:00:40.974Z,99961.62
2024-01-11T04:03:47.374Z,99965.22
2024-01-11T04:06:54.027Z,99971.06
2024-01-11T04:10:00.345Z,99973.13
2024-01-11T04:13:09.073Z,99978.34
2024-01-11T04:16:15.477Z,99980.78
2024-01-11T04:19:23.858Z,99973.86
2024-01-11T04:22:32.098Z,99973.20
2024-01-11T04:25:39.529Z,99971.98
2024-01-11T04:28:45.953Z,99968.13
2024-01-11T04:31:52.393Z,99961.88
2024-01-11T04:34:58.929Z,99963.63
2024-01-11T04:38:05.791Z,99956.70
2024-01-11T04:41:14.039Z,99947.86
2024-01-11T04:44:20.510Z,99947.52
2024-01-11T04:47:27.035Z,99949.09
2024-01-11T04:50:33.476Z,99948.05
2024-01-11T04:53:42.565Z,99939.88
2024-01-11T04:56:49.121Z,99927.87
2024-01-11T04:59:55.615Z,99921.29
2024-01-11T05:03:02.168Z,99913.80
2024-01-11T05:06:09.192Z,99913.98
2024-01-11T05:09:16.730Z,99921.42
2024-01-11T05:12:23.115Z,99922.61
2024-01-11T05:15:29.454Z,99921.04
2024-01-11T05:18:35.860Z,99917.05
2024-01-11T05:21:42.471Z,99907.85
2024-01-11T05:24:48.803Z,99903.51
2024-01-11T05:27:55.161Z,99899.88
2024-01-11T05:31:01.605Z,99889.27
2024-01-11T05:34:08.267Z,99880.93
2024-01-11T05:37:14.770Z,99866.69
2024-01-11T05:40:21.463Z,99854.52
2024-01-11T05:43:27.844Z,99852.45
2024-01-11T05:46:34.351Z,99844.78
2024-01-11T05:49:40.737Z,99841.48
2024-01-11T05:52:47.182Z,99853.48
2024-01-11T05:55:55.282Z,99853.63
2024-01-11T05:59:02.013Z,99841.82
2024-01-11T06:02:08.711Z,99838.16
2024-01-11T06:05:15.164Z,99836.27
2024-01-11T06:08:21.640Z,99839.91
2024-01-11T06:11:27.991Z,99844.61
2024-01-11T06:14:34.431Z,99851.04
2024-01-11T06:17:41.035Z,99847.38
2024-01-11T06:20:48.109Z,99839.38
2024-01-11T06:23:54.721Z,99841.82
2024-01-11T06:27:01.114Z,99844.95
2024-01-11T06:30:09.604Z,99853.83
2024-01-11T06:33:16.533Z,99858.87
2024-01-11T06:36:23.514Z,99864.96
2024-01-11T06:39:30.801Z,99869.48
2024-01-11T06:42:37.347Z,99862.54
2024-01-11T06:45:45.162Z,99857.30
2024-01-11T06:48:51.749Z,99847.05
2024-01-11T06:51:58.222Z,99850.71
2024-01-11T06:55:04.600Z,99854.88
2024-01-11T06:58:11.001Z,99834.71
2024-01-11T07:01:17.368Z,99819.23
2024-01-11T07:04:23.722Z,99823.75
2024-01-11T07:07:30.106Z,99813.15
2024-01-11T07:10:36.681Z,99797.67
2024-01-11T07:13:43.796Z,99782.90
2024-01-11T07:16:50.911Z,99776.13
2024-01-11T07:19:57.354Z,99776.66
2024-01-11T07:23:04.006Z,99773.34
2024-01-11T07:26:10.376Z,99780.98
2024-01-11T07:29:16.749Z,99778.39
2024-01-11T07:32:23.221Z,99772.30
2024-01-11T07:35:29.731Z,99761.15
2024-01-11T07:38:36.033Z,99761.98
2024-01-11T07:41:43.168Z,99757.94
2024-01-11T07:44:49.708Z,99757.56
2024-01-11T07:47:56.294Z,99755.63
2024-01-11T07:51:03.816Z,99746.73
2024-01-11T07:54:10.205Z,99743.40
2024-01-11T07:57:16.951Z,99741.77
2024-01-11T08:00:24.550Z,99756.16
2024-01-11T08:03:31.148Z,99762.41
2024-01-11T08:06:37.748Z,99770.04
2024-01-11T08:09:46.830Z,99765.62
2024-01-11T08:12:53.642Z,99765.30
2024-01-11T08:16:00.011Z,99758.33
2024-01-11T08:19:06.818Z,99754.45
2024-01-11T08:22:13.857Z,99753.52
2024-01-11T08:25:20.334Z,99747.13
2024-01-11T08:28:26.689Z,99744.43
2024-01-11T08:31:34.415Z,99732.55
2024-01-11T08:34:41.704Z,99732.48
2024-01-11T08:37:48.175Z,99747.69
2024-01-11T08:40:54.548Z,99746.15
2024-01-11T08:44:00.967Z,99736.90
2024-01-11T08:47:07.670Z,99738.48
2024-01-11T08:50:18.556Z,99746.20
2024-01-11T08:53:26.404Z,99744.51
2024-01-11T08:56:32.805Z,99744.39
2024-01-11T08:59:39.329Z,99746.64
2024-01-11T09:02:45.715Z,99745.08
2024-01-11T09:05:52.191Z,99741.31
2024-01-11T09:08:58.676Z,99733.48
2024-01-11T09:12:06.011Z,99731.98
2024-01-11T09:15:12.937Z,99730.11
2024-01-11T09:18:19.483Z,99726.38
2024-01-11T09:21:26.983Z,99724.23
2024-01-11T09:24:37.010Z,99720.61
2024-01-11T09:27:44.882Z,99720.95
2024-01-11T09:30:51.362Z,99716.23
2024-01-11T09:33:58.472Z,99714.45
2024-01-11T09:37:05.077Z,99702.55
2024-01-11T09:40:13.449Z,99701.35
2024-01-11T09:43:19.988Z,99702.83
2024-01-11T09:46:28.160Z,99701.08
2024-01-11T09:49:35.794Z,99694.75
2024-01-11T09:52:44.128Z,99689.61
2024-01-11T09:55:51.127Z,99689.48
2024-01-11T09:58:57.613Z,99678.20
2024-01-11T10:02:09.397Z,99669.95
2024-01-11T10:05:16.336Z,99658.59
2024-01-11T10:08:24.256Z,99659.52
2024-01-11T10:11:30.738Z,99661.35
2024-01-11T10:14:37.336Z,99658.48
2024-01-11T10:17:47.519Z,99651.48
2024-01-11T10:20:54.199Z,99650.58
2024-01-11T10:24:05.670Z,99652.21
2024-01-11T10:27:12.698Z,99653.10
2024-01-11T10:30:21.515Z,99646.02
2024-01-11T10:33:28.028Z,99633.92
2024-01-11T10:36:36.904Z,99619.24
2024-01-11T10:39:44.446Z,99616.14
2024-01-11T10:42:54.601Z,99615.47
2024-01-11T10:46:05.529Z,99617.54
2024-01-11T10:49:14.182Z,99617.58
2024-01-11T10:52:30.196Z,99612.98
2024-01-11T10:55:38.710Z,99607.98
2024-01-11T10:58:47.761Z,99606.95
2024-01-11T11:01:57.371Z,99606.44
2024-01-11T11:05:05.765Z,99604.66
2024-01-11T11:08:14.930Z,99604.33
2024-01-11T11:11:21.786Z,99591.73
2024-01-11T11:14:30.459Z,99581.64
2024-01-11T11:17:37.846Z,99571.10
2024-01-11T11:20:44.540Z,99560.23
2024-01-11T11:23:51.566Z,99556.33
2024-01-11T11:26:58.638Z,99552.98
2024-01-11T11:30:05.402Z,99548.84
2024-01-11T11:33:20.133Z,99544.26
2024-01-11T11:36:32.667Z,99538.33
2024-01-11T11:39:39.199Z,99529.52
2024-01-11T11:42:46.238Z,99529.15
2024-01-11T11:45:54.384Z,99521.17
2024-01-11T11:49:01.382Z,99502.71
2024-01-11T11:52:08.089Z,99500.91
2024-01-11T11:55:16.482Z,99496.02
2024-01-11T11:58:23.050Z,99494.22
2024-01-11T12:01:29.465Z,99492.73
2024-01-11T12:04:36.041Z,99483.52
2024-01-11T12:07:42.529Z,99478.33
2024-01-11T12:10:48.947Z,99474.47
2024-01-11T12:13:58.927Z,99477.98
2024-01-11T12:17:06.383Z,99474.23
2024-01-11T12:20:15.742Z,99475.95
2024-01-11T12:23:22.330Z,99476.60
2024-01-11T12:26:28.962Z,99476.77
2024-01-11T12:29:43.819Z,99471.83
2024-01-11T12:32:56.134Z,99467.00
2024-01-11T12:36:02.565Z,99461.71
2024-01-11T12:39:07.655Z,99457.83
2024-01-11T12:42:15.301Z,99448.62
2024-01-11T12:45:21.978Z,99452.38
2024-01-11T12:48:28.597Z,99443.98
2024-01-11T12:51:38.205Z,99432.34
2024-01-11T12:54:45.637Z,99427.96
2024-01-11T12:57:52.093Z,99430.08
2024-01-11T13:00:58.919Z,99421.77
2024-01-11T13:04:05.483Z,99414.81
2024-01-11T13:07:13.561Z,99409.79
2024-01-11T13:10:20.103Z,99406.50
2024-01-11T13:13:27.545Z,99403.02
2024-01-11T13:16:34.448Z,99396.14
2024-01-11T13:19:40.964Z,99395.41
2024-01-11T13:22:47.552Z,99395.87
2024-01-11T13:25:54.397Z,99400.23
2024-01-11T13:29:00.867Z,99402.92
2024-01-11T13:32:08.000Z,99401.42
2024-01-11T13:35:15.243Z,99391.55
2024-01-11T13:38:25.139Z,99382.43
2024-01-11T13:41:32.092Z,99378.15
2024-01-11T13:44:38.672Z,99378.70
2024-01-11T13:47:45.400Z,99380.95
2024-01-11T13:50:51.923Z,99380.56
2024-01-11T13:53:59.030Z,99372.55
2024-01-11T13:57:05.759Z,99373.98
2024-01-11T14:00:14.810Z,99379.15
2024-01-11T14:03:21.604Z,99388.45
2024-01-11T14:06:28.297Z,99391.90
2024-01-11T14:09:34.774Z,99394.11
2024-01-11T14:12:41.648Z,99398.92
2024-01-11T14:15:49.409Z,99399.76
2024-01-11T14:18:56.083Z,99399.39
2024-01-11T14:22:02.491Z,99399.67
2024-01-11T14:25:12.286Z,99401.24
2024-01-11T14:28:19.277Z,99407.23
2024-01-11T14:31:25.752Z,99409.73
2024-01-11T14:34:32.374Z,99406.43
2024-01-11T14:37:40.838Z,99406.77
2024-01-11T14:40:47.622Z,99414.63
2024-01-11T14:43:55.984Z,99411.66
2024-01-11T14:47:02.683Z,99413.77
2024-01-11T14:50:12.574Z,99416.32
2024-01-11T14:53:19.742Z,99426.75
2024-01-11T14:56:26.319Z,99435.64
2024-01-11T14:59:33.290Z,99446.43
2024-01-11T15:02:39.826Z,99451.55
2024-01-11T15:05:46.583Z,99461.89
2024-01-11T15:08:53.627Z,99469.74
2024-01-11T15:12:01.408Z,99486.55
2024-01-11T15:15:10.640Z,99500.41
2024-01-11T15:18:17.139Z,99503.85
2024-01-11T15:21:23.771Z,99510.77
2024-01-11T15:24:31.072Z,99518.23
2024-01-11T15:27:38.048Z,99520.71
2024-01-11T15:30:44.795Z,99512.34
2024-01-11T15:33:51.518Z,99504.24
2024-01-11T15:36:58.300Z,99506.45
2024-01-11T15:40:05.254Z,99504.52
2024-01-11T15:43:11.613Z,99500.11
2024-01-11T15:46:16.286Z,99495.23
2024-01-11T15:49:22.737Z,99493.85
2024-01-11T15:52:29.105Z,99497.40
2024-01-11T15:55:35.521Z,99488.29
2024-01-11T15:58:41.933Z,99491.44
2024-01-11T16:01:56.647Z,99488.45
2024-01-11T16:05:12.298Z,99486.18
2024-01-11T16:08:18.882Z,99492.02
2024-01-11T16:11:26.193Z,99492.16
2024-01-11T16:14:32.725Z,99486.95
2024-01-11T16:17:39.624Z,99485.77
2024-01-11T16:20:46.304Z,99488.80
2024-01-11T16:23:53.486Z,99492.08
2024-01-11T16:27:00.620Z,99490.67
2024-01-11T16:30:08.918Z,99492.83
2024-01-11T16:33:15.776Z,99487.98
2024-01-11T16:36:22.287Z,99487.72
2024-01-11T16:39:28.630Z,99489.65
2024-01-11T16:42:33.866Z,99495.27
2024-01-11T16:45:41.610Z,99497.08
2024-01-11T16:48:48.469Z,99488.11
2024-01-11T16:51:54.893Z,99475.48
2024-01-11T16:55:01.364Z,99478.77
2024-01-11T16:58:07.989Z,99479.08
2024-01-11T17:01:14.826Z,99483.39
2024-01-11T17:04:21.314Z,99482.37
2024-01-11T17:07:27.769Z,99477.20
2024-01-11T17:10:34.728Z,99478.27
2024-01-11T17:13:41.119Z,99475.47
2024-01-11T17:16:47.401Z,99479.11
2024-01-11T17:19:51.919Z,99469.34
2024-01-11T17:22:58.523Z,99469.29
2024-01-11T17:26:07.271Z,99481.14
2024-01-11T17:29:13.766Z,99475.81
2024-01-11T17:32:20.749Z,99473.46
2024-01-11T17:35:27.348Z,99481.00
2024-01-11T17:38:33.843Z,99490.48
2024-01-11T17:41:44.261Z,99493.48
2024-01-11T17:44:50.983Z,99493.82
2024-01-11T17:47:58.314Z,99489.42
2024-01-11T17:51:05.476Z,99488.41
2024-01-11T17:54:11.980Z,99497.98
2024-01-11T17:57:18.460Z,99503.96
2024-01-11T18:00:26.195Z,99509.93
2024-01-11T18:03:32.584Z,99516.16
2024-01-11T18:06:39.944Z,99520.25
2024-01-11T18:09:46.518Z,99519.36
2024-01-11T18:12:52.902Z,99524.09
2024-01-11T18:15:59.350Z,99531.60
2024-01-11T18:19:06.715Z,99529.02
2024-01-11T18:22:13.169Z,99530.02
2024-01-11T18:25:19.878Z,99532.27
2024-01-11T18:28:26.411Z,99529.30
2024-01-11T18:31:33.096Z,99529.05
2024-01-11T18:34:39.436Z,99528.02
2024-01-11T18:37:45.918Z,99530.92
2024-01-11T18:40:52.446Z,99530.92
2024-01-11T18:43:58.675Z,99532.75
2024-01-11T18:47:03.350Z,99528.59
2024-01-11T18:50:11.614Z,99528.10
2024-01-11T18:53:18.754Z,99520.36
2024-01-11T18:56:25.269Z,99512.40
2024-01-11T18:59:31.691Z,99510.83
2024-01-11T19:02:38.354Z,99509.46
2024-01-11T19:05:45.283Z,99504.38
2024-01-11T19:08:51.966Z,99502.88
2024-01-11T19:11:59.768Z,99501.95
2024-01-11T19:15:07.201Z,99504.58
2024-01-11T19:18:14.655Z,99504.52
2024-01-11T19:21:38.116Z,99503.80
2024-01-11T19:24:44.386Z,99504.27
2024-01-11T19:27:49.892Z,99502.09
2024-01-11T19:30:57.216Z,99508.73
2024-01-11T19:34:03.650Z,99509.27
2024-01-11T19:37:11.618Z,99510.91
2024-01-11T19:40:19.122Z,99511.24
2024-01-11T19:43:25.533Z,99510.98
2024-01-11T19:46:33.889Z,99510.84
2024-01-11T19:49:40.334Z,99509.42
2024-01-11T19:52:46.759Z,99506.83
2024-01-11T19:55:58.112Z,99502.98
2024-01-11T19:59:02.711Z,99498.96
2024-01-11T20:02:09.398Z,99494.11
2024-01-11T20:05:16.032Z,99496.61
2024-01-11T20:08:25.890Z,99495.23
2024-01-11T20:11:32.534Z,99493.28
2024-01-11T20:14:40.903Z,99492.58
2024-01-11T20:17:47.493Z,99491.62
2024-01-11T20:20:54.358Z,99490.41
2024-01-11T20:24:00.813Z,99493.66
2024-01-11T20:27:07.722Z,99492.70
2024-01-11T20:30:15.095Z,99491.34
2024-01-11T20:33:21.679Z,99492.71
2024-01-11T20:36:28.302Z,99495.67
2024-01-11T20:39:34.671Z,99499.38
2024-01-11T20:42:41.079Z,99504.20
2024-01-11T20:45:47.731Z,99505.81
2024-01-11T20:48:54.381Z,99509.67
2024-01-11T20:52:02.050Z,99516.17
2024-01-11T20:55:09.617Z,99518.23
2024-01-11T20:58:16.016Z,99516.66
2024-01-11T21:01:22.554Z,99514.38
2024-01-11T21:04:28.850Z,99518.23
2024-01-11T21:07:33.440Z,99527.17
2024-01-11T21:10:39.816Z,99535.00
2024-01-11T21:13:46.132Z,99531.62
2024-01-11T21:16:50.747Z,99535.16
2024-01-11T21:19:57.165Z,99536.80
2024-01-11T21:23:38.026Z,99535.60
2024-01-11T21:26:45.460Z,99538.16
2024-01-11T21:29:51.861Z,99536.50
2024-01-11T21:32:58.447Z,99539.05
2024-01-11T21:36:05.281Z,99541.41
2024-01-11T21:39:11.672Z,99539.83
2024-01-11T21:42:18.053Z,99539.31
2024-01-11T21:45:25.921Z,99536.47
2024-01-11T21:48:32.610Z,99552.23
2024-01-11T21:51:39.254Z,99558.39
2024-01-11T21:54:45.621Z,99559.13
2024-01-11T21:57:51.997Z,99559.15
2024-01-11T22:00:58.970Z,99556.98
2024-01-11T22:04:07.181Z,99562.55
2024-01-11T22:07:13.791Z,99564.30
2024-01-11T22:10:20.663Z,99561.55
2024-01-11T22:13:27.242Z,99566.96
2024-01-11T22:16:34.977Z,99566.34
2024-01-11T22:19:42.903Z,99562.32
2024-01-11T22:22:49.406Z,99563.66
2024-01-11T22:25:55.695Z,99567.91
2024-01-11T22:29:00.763Z,99568.21
2024-01-11T22:32:08.014Z,99570.15
2024-01-11T22:35:14.585Z,99571.89
2024-01-11T22:38:20.968Z,99576.34
2024-01-11T22:41:27.294Z,99580.11
2024-01-11T22:44:36.474Z,99580.10
2024-01-11T22:47:43.468Z,99584.38
2024-01-11T22:50:49.916Z,99581.33
2024-01-11T22:53:56.371Z,99582.72
2024-01-11T22:57:02.742Z,99580.30
2024-01-11T23:00:24.299Z,99580.05
2024-01-11T23:03:30.792Z,99585.82
2024-01-11T23:06:37.917Z,99587.69
2024-01-11T23:09:44.701Z,99591.11
2024-01-11T23:12:51.048Z,99597.42
2024-01-11T23:15:57.443Z,99594.95
2024-01-11T23:19:04.002Z,99596.05
2024-01-11T23:22:10.319Z,99594.07
2024-01-11T23:25:15.064Z,99589.58
2024-01-11T23:28:22.911Z,99587.02
2024-01-11T23:31:29.587Z,99585.44
2024-01-11T23:34:35.978Z,99590.30
2024-01-11T23:37:42.423Z,99594.63
2024-01-11T23:40:48.751Z,99591.67
2024-01-11T23:43:55.106Z,99592.29
2024-01-11T23:46:59.734Z,99598.53
2024-01-11T23:50:07.392Z,99602.05
2024-01-11T23:53:13.983Z,99603.33
2024-01-11T23:56:20.574Z,99606.59
2024-01-11T23:59:27.078Z,99613.92
